sensor_id;sensor_type;location;lat;lon;timestamp;temperature;humidity
47516;DHT22;33249;51.990;5.840;2022-09-30T00:01:51;7.90;99.90
47516;DHT22;33249;51.990;5.840;2022-09-30T00:04:18;7.80;99.90
47516;DHT22;33249;51.990;5.840;2022-09-30T00:06:44;7.70;99.90
47516;DHT22;33249;51.990;5.840;2022-09-30T00:09:11;7.70;99.90
47516;DHT22;33249;51.990;5.840;2022-09-30T00:11:38;7.80;99.90
47516;DHT22;33249;51.990;5.840;2022-09-30T00:14:05;7.90;99.90
47516;DHT22;33249;51.990;5.840;2022-09-30T00:16:36;8.10;99.90
47516;DHT22;33249;51.990;5.840;2022-09-30T00:19:02;8.00;99.90
47516;DHT22;33249;51.990;5.840;2022-09-30T00:21:30;7.90;99.90
47516;DHT22;33249;51.990;5.840;2022-09-30T00:23:58;7.80;99.90
47516;DHT22;33249;51.990;5.840;2022-09-30T00:26:24;7.90;99.90
47516;DHT22;33249;51.990;5.840;2022-09-30T00:28:51;7.90;99.90
47516;DHT22;33249;51.990;5.840;2022-09-30T00:31:18;7.90;99.90
47516;DHT22;33249;51.990;5.840;2022-09-30T00:33:44;7.80;99.90
47516;DHT22;33249;51.990;5.840;2022-09-30T00:36:31;7.80;99.90
47516;DHT22;33249;51.990;5.840;2022-09-30T00:38:57;8.00;99.90
47516;DHT22;33249;51.990;5.840;2022-09-30T00:41:23;8.00;99.90
47516;DHT22;33249;51.990;5.840;2022-09-30T00:43:50;7.90;99.90
47516;DHT22;33249;51.990;5.840;2022-09-30T00:46:20;7.90;99.90
47516;DHT22;33249;51.990;5.840;2022-09-30T00:48:49;7.80;99.90
47516;DHT22;33249;51.990;5.840;2022-09-30T00:51:20;7.70;99.90
47516;DHT22;33249;51.990;5.840;2022-09-30T00:53:50;7.60;99.90
47516;DHT22;33249;51.990;5.840;2022-09-30T00:56:21;7.60;99.90
47516;DHT22;33249;51.990;5.840;2022-09-30T01:01:14;8.00;99.90
47516;DHT22;33249;51.990;5.840;2022-09-30T01:03:44;8.00;99.90
47516;DHT22;33249;51.990;5.840;2022-09-30T01:06:15;7.90;99.90
47516;DHT22;33249;51.990;5.840;2022-09-30T01:08:41;7.70;99.90
47516;DHT22;33249;51.990;5.840;2022-09-30T01:11:08;7.60;99.90
47516;DHT22;33249;51.990;5.840;2022-09-30T01:13:34;7.60;99.90
47516;DHT22;33249;51.990;5.840;2022-09-30T01:16:09;7.50;99.90
47516;DHT22;33249;51.990;5.840;2022-09-30T01:18:52;7.50;99.90
47516;DHT22;33249;51.990;5.840;2022-09-30T01:27:04;7.70;99.90
47516;DHT22;33249;51.990;5.840;2022-09-30T01:29:48;7.50;99.90
47516;DHT22;33249;51.990;5.840;2022-09-30T01:35:00;7.80;99.90
47516;DHT22;33249;51.990;5.840;2022-09-30T01:37:40;7.70;99.90
47516;DHT22;33249;51.990;5.840;2022-09-30T01:40:31;7.60;99.90
47516;DHT22;33249;51.990;5.840;2022-09-30T01:43:02;7.50;99.90
47516;DHT22;33249;51.990;5.840;2022-09-30T01:45:32;7.30;99.90
47516;DHT22;33249;51.990;5.840;2022-09-30T01:50:32;7.40;99.90
47516;DHT22;33249;51.990;5.840;2022-09-30T01:53:04;7.40;99.90
47516;DHT22;33249;51.990;5.840;2022-09-30T01:55:36;7.40;99.90
47516;DHT22;33249;51.990;5.840;2022-09-30T02:00:35;7.40;99.90
47516;DHT22;33249;51.990;5.840;2022-09-30T02:03:14;7.50;99.90
47516;DHT22;33249;51.990;5.840;2022-09-30T02:13:48;7.40;99.90
47516;DHT22;33249;51.990;5.840;2022-09-30T02:16:23;7.40;99.90
47516;DHT22;33249;51.990;5.840;2022-09-30T02:18:57;7.50;99.90
47516;DHT22;33249;51.990;5.840;2022-09-30T02:21:27;7.60;99.90
47516;DHT22;33249;51.990;5.840;2022-09-30T02:23:58;7.60;99.90
47516;DHT22;33249;51.990;5.840;2022-09-30T02:26:27;7.70;99.90
47516;DHT22;33249;51.990;5.840;2022-09-30T02:29:00;7.70;99.90
47516;DHT22;33249;51.990;5.840;2022-09-30T02:31:28;7.60;99.90
47516;DHT22;33249;51.990;5.840;2022-09-30T02:34:15;7.60;99.90
47516;DHT22;33249;51.990;5.840;2022-09-30T02:36:46;7.60;99.90
47516;DHT22;33249;51.990;5.840;2022-09-30T02:39:20;7.60;99.90
47516;DHT22;33249;51.990;5.840;2022-09-30T02:41:48;7.40;99.90
47516;DHT22;33249;51.990;5.840;2022-09-30T02:44:18;7.40;99.90
47516;DHT22;33249;51.990;5.840;2022-09-30T02:46:56;7.40;99.90
47516;DHT22;33249;51.990;5.840;2022-09-30T02:49:27;7.60;99.90
47516;DHT22;33249;51.990;5.840;2022-09-30T02:56:53;7.20;99.90
47516;DHT22;33249;51.990;5.840;2022-09-30T02:59:22;7.10;99.90
47516;DHT22;33249;51.990;5.840;2022-09-30T03:01:48;7.20;99.90
47516;DHT22;33249;51.990;5.840;2022-09-30T03:04:15;7.20;99.90
47516;DHT22;33249;51.990;5.840;2022-09-30T03:06:43;7.20;99.90
47516;DHT22;33249;51.990;5.840;2022-09-30T03:09:09;7.20;99.90
47516;DHT22;33249;51.990;5.840;2022-09-30T03:11:35;7.10;99.90
47516;DHT22;33249;51.990;5.840;2022-09-30T03:16:53;7.20;99.90
47516;DHT22;33249;51.990;5.840;2022-09-30T03:19:28;7.20;99.90
47516;DHT22;33249;51.990;5.840;2022-09-30T03:26:56;7.20;99.90
47516;DHT22;33249;51.990;5.840;2022-09-30T03:29:43;7.10;99.90
47516;DHT22;33249;51.990;5.840;2022-09-30T03:32:31;7.10;99.90
47516;DHT22;33249;51.990;5.840;2022-09-30T03:40:20;7.30;99.90
47516;DHT22;33249;51.990;5.840;2022-09-30T03:42:53;7.20;99.90
47516;DHT22;33249;51.990;5.840;2022-09-30T03:45:26;7.10;99.90
47516;DHT22;33249;51.990;5.840;2022-09-30T03:47:56;7.00;99.90
47516;DHT22;33249;51.990;5.840;2022-09-30T03:50:23;7.00;99.90
47516;DHT22;33249;51.990;5.840;2022-09-30T03:52:50;6.90;99.90
47516;DHT22;33249;51.990;5.840;2022-09-30T03:55:17;6.90;99.90
47516;DHT22;33249;51.990;5.840;2022-09-30T03:57:44;6.90;99.90
47516;DHT22;33249;51.990;5.840;2022-09-30T04:00:11;7.00;99.90
47516;DHT22;33249;51.990;5.840;2022-09-30T04:02:37;7.10;99.90
47516;DHT22;33249;51.990;5.840;2022-09-30T04:05:04;7.20;99.90
47516;DHT22;33249;51.990;5.840;2022-09-30T04:07:32;7.20;99.90
47516;DHT22;33249;51.990;5.840;2022-09-30T04:09:58;7.30;99.90
47516;DHT22;33249;51.990;5.840;2022-09-30T04:12:24;7.20;99.90
47516;DHT22;33249;51.990;5.840;2022-09-30T04:14:51;7.20;99.90
47516;DHT22;33249;51.990;5.840;2022-09-30T04:17:17;7.20;99.90
47516;DHT22;33249;51.990;5.840;2022-09-30T04:19:43;7.10;99.90
47516;DHT22;33249;51.990;5.840;2022-09-30T04:22:09;7.00;99.90
47516;DHT22;33249;51.990;5.840;2022-09-30T04:24:35;6.80;99.90
47516;DHT22;33249;51.990;5.840;2022-09-30T04:27:01;6.70;99.90
47516;DHT22;33249;51.990;5.840;2022-09-30T04:29:27;6.90;99.90
47516;DHT22;33249;51.990;5.840;2022-09-30T04:31:53;7.00;99.90
47516;DHT22;33249;51.990;5.840;2022-09-30T04:34:19;7.00;99.90
47516;DHT22;33249;51.990;5.840;2022-09-30T04:36:45;6.90;99.90
47516;DHT22;33249;51.990;5.840;2022-09-30T04:39:11;6.80;99.90
47516;DHT22;33249;51.990;5.840;2022-09-30T04:41:40;6.70;99.90
47516;DHT22;33249;51.990;5.840;2022-09-30T04:44:06;6.70;99.90
47516;DHT22;33249;51.990;5.840;2022-09-30T04:46:33;6.80;99.90
47516;DHT22;33249;51.990;5.840;2022-09-30T04:48:59;6.70;99.90
47516;DHT22;33249;51.990;5.840;2022-09-30T04:51:26;6.70;99.90
47516;DHT22;33249;51.990;5.840;2022-09-30T04:53:55;6.80;99.90
47516;DHT22;33249;51.990;5.840;2022-09-30T04:56:21;7.10;99.90
47516;DHT22;33249;51.990;5.840;2022-09-30T04:58:51;7.00;99.90
47516;DHT22;33249;51.990;5.840;2022-09-30T05:01:17;6.90;99.90
47516;DHT22;33249;51.990;5.840;2022-09-30T05:03:43;7.00;99.90
47516;DHT22;33249;51.990;5.840;2022-09-30T05:06:10;7.20;99.90
47516;DHT22;33249;51.990;5.840;2022-09-30T05:08:36;7.10;99.90
47516;DHT22;33249;51.990;5.840;2022-09-30T05:11:03;7.00;99.90
47516;DHT22;33249;51.990;5.840;2022-09-30T05:13:33;7.00;99.90
47516;DHT22;33249;51.990;5.840;2022-09-30T05:16:00;7.00;99.90
47516;DHT22;33249;51.990;5.840;2022-09-30T05:18:27;7.10;99.90
47516;DHT22;33249;51.990;5.840;2022-09-30T05:20:53;7.10;99.90
47516;DHT22;33249;51.990;5.840;2022-09-30T05:23:19;7.00;99.90
47516;DHT22;33249;51.990;5.840;2022-09-30T05:25:46;6.90;99.90
47516;DHT22;33249;51.990;5.840;2022-09-30T05:28:12;7.00;99.90
47516;DHT22;33249;51.990;5.840;2022-09-30T05:30:39;7.00;99.90
47516;DHT22;33249;51.990;5.840;2022-09-30T05:33:06;7.00;99.90
47516;DHT22;33249;51.990;5.840;2022-09-30T05:35:33;7.00;99.90
47516;DHT22;33249;51.990;5.840;2022-09-30T05:37:59;6.90;99.90
47516;DHT22;33249;51.990;5.840;2022-09-30T05:40:26;6.90;99.90
47516;DHT22;33249;51.990;5.840;2022-09-30T05:42:52;6.90;99.90
47516;DHT22;33249;51.990;5.840;2022-09-30T05:45:17;6.90;99.90
47516;DHT22;33249;51.990;5.840;2022-09-30T05:47:49;7.00;99.90
47516;DHT22;33249;51.990;5.840;2022-09-30T05:50:17;6.90;99.90
47516;DHT22;33249;51.990;5.840;2022-09-30T05:52:45;7.00;99.90
47516;DHT22;33249;51.990;5.840;2022-09-30T05:55:12;7.00;99.90
47516;DHT22;33249;51.990;5.840;2022-09-30T05:57:38;7.00;99.90
47516;DHT22;33249;51.990;5.840;2022-09-30T06:00:04;7.00;99.90
47516;DHT22;33249;51.990;5.840;2022-09-30T06:02:37;7.00;99.90
47516;DHT22;33249;51.990;5.840;2022-09-30T06:05:04;7.10;99.90
47516;DHT22;33249;51.990;5.840;2022-09-30T06:07:30;7.20;99.90
47516;DHT22;33249;51.990;5.840;2022-09-30T06:09:56;7.20;99.90
47516;DHT22;33249;51.990;5.840;2022-09-30T06:12:21;7.40;99.90
47516;DHT22;33249;51.990;5.840;2022-09-30T06:14:47;7.40;99.90
47516;DHT22;33249;51.990;5.840;2022-09-30T06:17:13;7.40;99.90
47516;DHT22;33249;51.990;5.840;2022-09-30T06:19:43;7.30;99.90
47516;DHT22;33249;51.990;5.840;2022-09-30T06:22:09;7.30;99.90
47516;DHT22;33249;51.990;5.840;2022-09-30T06:24:35;7.30;99.90
47516;DHT22;33249;51.990;5.840;2022-09-30T06:27:01;7.20;99.90
47516;DHT22;33249;51.990;5.840;2022-09-30T06:29:27;7.30;99.90
47516;DHT22;33249;51.990;5.840;2022-09-30T06:31:53;7.30;99.90
47516;DHT22;33249;51.990;5.840;2022-09-30T06:34:19;7.30;99.90
47516;DHT22;33249;51.990;5.840;2022-09-30T06:36:45;7.30;99.90
47516;DHT22;33249;51.990;5.840;2022-09-30T06:39:11;7.40;99.90
47516;DHT22;33249;51.990;5.840;2022-09-30T06:41:36;7.30;99.90
47516;DHT22;33249;51.990;5.840;2022-09-30T06:44:08;7.30;99.90
47516;DHT22;33249;51.990;5.840;2022-09-30T06:46:34;7.30;99.90
47516;DHT22;33249;51.990;5.840;2022-09-30T06:49:00;7.30;99.90
47516;DHT22;33249;51.990;5.840;2022-09-30T06:51:28;7.50;99.90
47516;DHT22;33249;51.990;5.840;2022-09-30T06:53:55;7.50;99.90
47516;DHT22;33249;51.990;5.840;2022-09-30T06:56:21;7.60;99.90
47516;DHT22;33249;51.990;5.840;2022-09-30T06:58:47;7.60;99.90
47516;DHT22;33249;51.990;5.840;2022-09-30T07:01:13;7.60;99.90
47516;DHT22;33249;51.990;5.840;2022-09-30T07:03:40;7.50;99.90
47516;DHT22;33249;51.990;5.840;2022-09-30T07:06:06;7.50;99.90
47516;DHT22;33249;51.990;5.840;2022-09-30T07:08:33;7.50;99.90
47516;DHT22;33249;51.990;5.840;2022-09-30T07:11:00;7.50;99.90
47516;DHT22;33249;51.990;5.840;2022-09-30T07:13:27;7.50;99.90
47516;DHT22;33249;51.990;5.840;2022-09-30T07:15:53;7.50;99.90
47516;DHT22;33249;51.990;5.840;2022-09-30T07:18:21;7.60;99.90
47516;DHT22;33249;51.990;5.840;2022-09-30T07:20:48;7.60;99.90
47516;DHT22;33249;51.990;5.840;2022-09-30T07:23:14;7.60;99.90
47516;DHT22;33249;51.990;5.840;2022-09-30T07:25:47;7.60;99.90
47516;DHT22;33249;51.990;5.840;2022-09-30T07:28:13;7.70;99.90
47516;DHT22;33249;51.990;5.840;2022-09-30T07:30:40;7.70;99.90
47516;DHT22;33249;51.990;5.840;2022-09-30T07:33:08;7.80;99.90
47516;DHT22;33249;51.990;5.840;2022-09-30T07:35:34;7.80;99.90
47516;DHT22;33249;51.990;5.840;2022-09-30T07:38:00;7.80;99.90
47516;DHT22;33249;51.990;5.840;2022-09-30T07:40:26;7.90;99.90
47516;DHT22;33249;51.990;5.840;2022-09-30T07:42:56;8.00;99.90
47516;DHT22;33249;51.990;5.840;2022-09-30T07:45:22;8.10;99.90
47516;DHT22;33249;51.990;5.840;2022-09-30T07:47:49;8.20;99.90
47516;DHT22;33249;51.990;5.840;2022-09-30T07:50:15;8.30;99.90
47516;DHT22;33249;51.990;5.840;2022-09-30T07:52:41;8.40;99.90
47516;DHT22;33249;51.990;5.840;2022-09-30T07:55:07;8.40;99.90
47516;DHT22;33249;51.990;5.840;2022-09-30T07:57:33;8.40;99.90
47516;DHT22;33249;51.990;5.840;2022-09-30T07:59:59;8.50;99.90
47516;DHT22;33249;51.990;5.840;2022-09-30T08:02:25;8.60;99.90
47516;DHT22;33249;51.990;5.840;2022-09-30T08:04:51;8.60;99.90
47516;DHT22;33249;51.990;5.840;2022-09-30T08:07:17;8.70;99.90
47516;DHT22;33249;51.990;5.840;2022-09-30T08:09:43;8.80;99.90
47516;DHT22;33249;51.990;5.840;2022-09-30T08:12:09;8.90;99.90
47516;DHT22;33249;51.990;5.840;2022-09-30T08:14:35;9.00;99.90
47516;DHT22;33249;51.990;5.840;2022-09-30T08:17:01;9.00;99.90
47516;DHT22;33249;51.990;5.840;2022-09-30T08:19:28;9.20;99.90
47516;DHT22;33249;51.990;5.840;2022-09-30T08:21:54;9.30;99.90
47516;DHT22;33249;51.990;5.840;2022-09-30T08:24:20;9.40;99.90
47516;DHT22;33249;51.990;5.840;2022-09-30T08:26:46;9.40;99.90
47516;DHT22;33249;51.990;5.840;2022-09-30T08:29:12;9.40;99.90
47516;DHT22;33249;51.990;5.840;2022-09-30T08:31:39;9.60;99.90
47516;DHT22;33249;51.990;5.840;2022-09-30T08:34:05;9.60;99.90
47516;DHT22;33249;51.990;5.840;2022-09-30T08:36:31;9.70;99.90
47516;DHT22;33249;51.990;5.840;2022-09-30T08:39:00;9.80;99.90
47516;DHT22;33249;51.990;5.840;2022-09-30T08:46:35;9.80;99.90
47516;DHT22;33249;51.990;5.840;2022-09-30T08:51:50;10.00;99.90
47516;DHT22;33249;51.990;5.840;2022-09-30T08:54:18;10.10;99.90
47516;DHT22;33249;51.990;5.840;2022-09-30T08:56:45;10.30;99.90
47516;DHT22;33249;51.990;5.840;2022-09-30T08:59:15;10.30;99.90
47516;DHT22;33249;51.990;5.840;2022-09-30T09:01:45;10.50;99.90
47516;DHT22;33249;51.990;5.840;2022-09-30T09:04:13;10.70;99.90
47516;DHT22;33249;51.990;5.840;2022-09-30T09:19:52;11.80;99.90
47516;DHT22;33249;51.990;5.840;2022-09-30T09:22:21;11.90;99.90
47516;DHT22;33249;51.990;5.840;2022-09-30T09:24:54;12.00;99.90
47516;DHT22;33249;51.990;5.840;2022-09-30T09:32:42;12.40;99.90
47516;DHT22;33249;51.990;5.840;2022-09-30T09:35:20;12.50;99.90
47516;DHT22;33249;51.990;5.840;2022-09-30T09:40:56;12.80;99.90
47516;DHT22;33249;51.990;5.840;2022-09-30T09:48:48;13.00;99.90
47516;DHT22;33249;51.990;5.840;2022-09-30T09:51:30;13.20;99.90
47516;DHT22;33249;51.990;5.840;2022-09-30T09:54:02;13.20;99.90
47516;DHT22;33249;51.990;5.840;2022-09-30T09:56:33;13.30;99.90
47516;DHT22;33249;51.990;5.840;2022-09-30T09:59:07;13.30;99.90
47516;DHT22;33249;51.990;5.840;2022-09-30T10:05:19;13.40;99.90
47516;DHT22;33249;51.990;5.840;2022-09-30T10:07:51;13.50;99.90
47516;DHT22;33249;51.990;5.840;2022-09-30T10:10:35;13.60;99.90
47516;DHT22;33249;51.990;5.840;2022-09-30T10:13:13;13.60;99.90
47516;DHT22;33249;51.990;5.840;2022-09-30T10:15:41;13.60;99.90
47516;DHT22;33249;51.990;5.840;2022-09-30T10:18:12;13.70;99.90
47516;DHT22;33249;51.990;5.840;2022-09-30T10:20:48;13.60;99.90
47516;DHT22;33249;51.990;5.840;2022-09-30T10:23:25;13.60;99.90
47516;DHT22;33249;51.990;5.840;2022-09-30T10:25:59;13.70;99.90
47516;DHT22;33249;51.990;5.840;2022-09-30T10:28:27;13.80;99.90
47516;DHT22;33249;51.990;5.840;2022-09-30T10:31:04;13.90;99.90
47516;DHT22;33249;51.990;5.840;2022-09-30T10:33:35;13.80;99.90
47516;DHT22;33249;51.990;5.840;2022-09-30T10:36:04;13.80;99.90
47516;DHT22;33249;51.990;5.840;2022-09-30T10:38:43;13.90;99.90
47516;DHT22;33249;51.990;5.840;2022-09-30T10:41:22;13.90;99.90
47516;DHT22;33249;51.990;5.840;2022-09-30T10:43:50;13.90;99.90
47516;DHT22;33249;51.990;5.840;2022-09-30T10:46:25;13.90;99.90
47516;DHT22;33249;51.990;5.840;2022-09-30T10:48:55;14.00;99.90
47516;DHT22;33249;51.990;5.840;2022-09-30T10:51:28;14.00;99.90
47516;DHT22;33249;51.990;5.840;2022-09-30T10:53:58;14.00;99.90
47516;DHT22;33249;51.990;5.840;2022-09-30T10:56:32;13.90;99.90
47516;DHT22;33249;51.990;5.840;2022-09-30T10:59:01;14.00;99.90
47516;DHT22;33249;51.990;5.840;2022-09-30T11:01:34;14.10;99.90
47516;DHT22;33249;51.990;5.840;2022-09-30T11:04:06;14.10;99.90
47516;DHT22;33249;51.990;5.840;2022-09-30T11:06:37;14.10;99.90
47516;DHT22;33249;51.990;5.840;2022-09-30T11:11:50;14.20;99.90
47516;DHT22;33249;51.990;5.840;2022-09-30T11:14:28;14.20;99.90
47516;DHT22;33249;51.990;5.840;2022-09-30T11:24:47;14.10;99.90
47516;DHT22;33249;51.990;5.840;2022-09-30T11:27:17;14.20;99.90
47516;DHT22;33249;51.990;5.840;2022-09-30T11:35:22;14.40;99.90
47516;DHT22;33249;51.990;5.840;2022-09-30T11:45:52;14.50;99.90
47516;DHT22;33249;51.990;5.840;2022-09-30T11:48:34;14.30;99.90
47516;DHT22;33249;51.990;5.840;2022-09-30T11:59:06;14.70;99.90
47516;DHT22;33249;51.990;5.840;2022-09-30T12:01:41;14.70;99.90
47516;DHT22;33249;51.990;5.840;2022-09-30T12:04:10;14.60;99.90
47516;DHT22;33249;51.990;5.840;2022-09-30T12:06:47;14.70;99.90
47516;DHT22;33249;51.990;5.840;2022-09-30T12:09:19;14.60;99.90
47516;DHT22;33249;51.990;5.840;2022-09-30T12:12:04;14.40;99.90
47516;DHT22;33249;51.990;5.840;2022-09-30T12:14:33;14.40;99.90
47516;DHT22;33249;51.990;5.840;2022-09-30T12:17:01;14.40;99.90
47516;DHT22;33249;51.990;5.840;2022-09-30T12:19:37;14.60;99.90
47516;DHT22;33249;51.990;5.840;2022-09-30T12:22:19;14.80;99.90
47516;DHT22;33249;51.990;5.840;2022-09-30T12:24:46;14.70;99.90
47516;DHT22;33249;51.990;5.840;2022-09-30T12:29:44;14.90;99.90
47516;DHT22;33249;51.990;5.840;2022-09-30T12:43:13;15.00;99.90
47516;DHT22;33249;51.990;5.840;2022-09-30T12:48:14;14.70;99.90
47516;DHT22;33249;51.990;5.840;2022-09-30T12:50:48;14.80;99.90
47516;DHT22;33249;51.990;5.840;2022-09-30T12:53:18;14.90;99.90
47516;DHT22;33249;51.990;5.840;2022-09-30T12:55:45;15.10;99.90
47516;DHT22;33249;51.990;5.840;2022-09-30T12:58:15;15.20;99.90
47516;DHT22;33249;51.990;5.840;2022-09-30T13:00:43;15.10;99.90
47516;DHT22;33249;51.990;5.840;2022-09-30T13:03:23;15.20;99.90
47516;DHT22;33249;51.990;5.840;2022-09-30T13:05:56;15.30;99.90
47516;DHT22;33249;51.990;5.840;2022-09-30T13:08:43;15.20;99.90
47516;DHT22;33249;51.990;5.840;2022-09-30T13:11:21;15.10;99.90
47516;DHT22;33249;51.990;5.840;2022-09-30T13:13:57;15.40;99.90
47516;DHT22;33249;51.990;5.840;2022-09-30T13:19:19;15.50;99.90
47516;DHT22;33249;51.990;5.840;2022-09-30T13:21:46;15.40;99.90
47516;DHT22;33249;51.990;5.840;2022-09-30T13:24:12;15.40;99.90
47516;DHT22;33249;51.990;5.840;2022-09-30T13:26:43;15.50;99.90
47516;DHT22;33249;51.990;5.840;2022-09-30T13:34:11;15.50;99.90
47516;DHT22;33249;51.990;5.840;2022-09-30T13:36:38;15.50;99.90
47516;DHT22;33249;51.990;5.840;2022-09-30T13:39:22;15.60;99.90
47516;DHT22;33249;51.990;5.840;2022-09-30T13:41:59;15.40;99.90
47516;DHT22;33249;51.990;5.840;2022-09-30T13:47:17;15.40;99.90
47516;DHT22;33249;51.990;5.840;2022-09-30T13:50:02;15.30;99.90
47516;DHT22;33249;51.990;5.840;2022-09-30T13:52:31;15.20;99.90
47516;DHT22;33249;51.990;5.840;2022-09-30T13:54:59;15.00;99.90
47516;DHT22;33249;51.990;5.840;2022-09-30T13:57:34;14.90;99.90
47516;DHT22;33249;51.990;5.840;2022-09-30T14:00:05;14.90;99.90
47516;DHT22;33249;51.990;5.840;2022-09-30T14:05:24;15.20;99.90
47516;DHT22;33249;51.990;5.840;2022-09-30T14:13:23;15.30;99.90
47516;DHT22;33249;51.990;5.840;2022-09-30T14:23:56;15.30;99.90
47516;DHT22;33249;51.990;5.840;2022-09-30T14:26:31;15.40;99.90
47516;DHT22;33249;51.990;5.840;2022-09-30T14:29:45;15.40;99.90
47516;DHT22;33249;51.990;5.840;2022-09-30T14:31:51;15.40;99.90
47516;DHT22;33249;51.990;5.840;2022-09-30T14:34:17;15.30;99.90
47516;DHT22;33249;51.990;5.840;2022-09-30T14:36:45;15.30;99.90
47516;DHT22;33249;51.990;5.840;2022-09-30T14:39:19;15.30;99.90
47516;DHT22;33249;51.990;5.840;2022-09-30T14:41:57;15.20;99.90
47516;DHT22;33249;51.990;5.840;2022-09-30T14:44:27;15.20;99.90
47516;DHT22;33249;51.990;5.840;2022-09-30T14:46:54;15.20;99.90
47516;DHT22;33249;51.990;5.840;2022-09-30T14:49:32;15.20;99.90
47516;DHT22;33249;51.990;5.840;2022-09-30T14:52:01;15.10;99.90
47516;DHT22;33249;51.990;5.840;2022-09-30T14:54:42;15.20;99.90
47516;DHT22;33249;51.990;5.840;2022-09-30T14:57:27;15.20;99.90
47516;DHT22;33249;51.990;5.840;2022-09-30T15:00:17;15.10;99.90
47516;DHT22;33249;51.990;5.840;2022-09-30T15:02:42;15.10;99.90
47516;DHT22;33249;51.990;5.840;2022-09-30T15:05:10;15.10;99.90
47516;DHT22;33249;51.990;5.840;2022-09-30T15:07:38;15.00;99.90
47516;DHT22;33249;51.990;5.840;2022-09-30T15:10:12;14.90;99.90
47516;DHT22;33249;51.990;5.840;2022-09-30T15:12:52;14.90;99.90
47516;DHT22;33249;51.990;5.840;2022-09-30T15:20:45;14.80;99.90
47516;DHT22;33249;51.990;5.840;2022-09-30T15:23:14;14.70;99.90
47516;DHT22;33249;51.990;5.840;2022-09-30T15:25:41;14.70;99.90
47516;DHT22;33249;51.990;5.840;2022-09-30T15:28:09;14.70;99.90
47516;DHT22;33249;51.990;5.840;2022-09-30T15:30:35;14.80;99.90
47516;DHT22;33249;51.990;5.840;2022-09-30T15:33:02;14.80;99.90
47516;DHT22;33249;51.990;5.840;2022-09-30T15:35:29;14.80;99.90
47516;DHT22;33249;51.990;5.840;2022-09-30T15:40:59;14.90;99.90
47516;DHT22;33249;51.990;5.840;2022-09-30T15:43:29;15.10;99.90
47516;DHT22;33249;51.990;5.840;2022-09-30T15:45:57;15.10;99.90
47516;DHT22;33249;51.990;5.840;2022-09-30T15:48:41;15.10;99.90
47516;DHT22;33249;51.990;5.840;2022-09-30T15:51:26;15.00;99.90
47516;DHT22;33249;51.990;5.840;2022-09-30T15:53:52;15.00;99.90
47516;DHT22;33249;51.990;5.840;2022-09-30T16:00:29;14.90;99.90
47516;DHT22;33249;51.990;5.840;2022-09-30T16:03:00;14.80;99.90
47516;DHT22;33249;51.990;5.840;2022-09-30T16:05:30;14.70;99.90
47516;DHT22;33249;51.990;5.840;2022-09-30T16:07:57;14.60;99.90
47516;DHT22;33249;51.990;5.840;2022-09-30T16:10:23;14.40;99.90
47516;DHT22;33249;51.990;5.840;2022-09-30T16:12:49;14.30;99.90
47516;DHT22;33249;51.990;5.840;2022-09-30T16:15:16;14.30;99.90
47516;DHT22;33249;51.990;5.840;2022-09-30T16:17:47;14.30;99.90
47516;DHT22;33249;51.990;5.840;2022-09-30T16:27:35;14.30;99.90
47516;DHT22;33249;51.990;5.840;2022-09-30T16:30:02;14.30;99.90
47516;DHT22;33249;51.990;5.840;2022-09-30T16:32:34;14.30;99.90
47516;DHT22;33249;51.990;5.840;2022-09-30T16:35:02;14.10;99.90
47516;DHT22;33249;51.990;5.840;2022-09-30T16:37:28;13.90;99.90
47516;DHT22;33249;51.990;5.840;2022-09-30T16:39:54;13.80;99.90
47516;DHT22;33249;51.990;5.840;2022-09-30T16:42:21;13.70;99.90
47516;DHT22;33249;51.990;5.840;2022-09-30T16:44:47;13.70;99.90
47516;DHT22;33249;51.990;5.840;2022-09-30T16:47:14;13.70;99.90
47516;DHT22;33249;51.990;5.840;2022-09-30T16:49:41;13.50;99.90
47516;DHT22;33249;51.990;5.840;2022-09-30T16:52:10;13.50;99.90
47516;DHT22;33249;51.990;5.840;2022-09-30T16:54:37;13.40;99.90
47516;DHT22;33249;51.990;5.840;2022-09-30T16:57:03;13.30;99.90
47516;DHT22;33249;51.990;5.840;2022-09-30T16:59:29;13.30;99.90
47516;DHT22;33249;51.990;5.840;2022-09-30T17:01:58;13.30;99.90
47516;DHT22;33249;51.990;5.840;2022-09-30T17:04:25;13.40;99.90
47516;DHT22;33249;51.990;5.840;2022-09-30T17:06:53;13.40;99.90
47516;DHT22;33249;51.990;5.840;2022-09-30T17:09:21;13.30;99.90
47516;DHT22;33249;51.990;5.840;2022-09-30T17:11:47;13.30;99.90
47516;DHT22;33249;51.990;5.840;2022-09-30T17:14:14;13.20;99.90
47516;DHT22;33249;51.990;5.840;2022-09-30T17:16:41;13.20;99.90
47516;DHT22;33249;51.990;5.840;2022-09-30T17:19:07;13.10;99.90
47516;DHT22;33249;51.990;5.840;2022-09-30T17:21:33;13.10;99.90
47516;DHT22;33249;51.990;5.840;2022-09-30T17:23:59;13.20;99.90
47516;DHT22;33249;51.990;5.840;2022-09-30T17:26:25;13.10;99.90
47516;DHT22;33249;51.990;5.840;2022-09-30T17:28:52;13.10;99.90
47516;DHT22;33249;51.990;5.840;2022-09-30T17:31:18;13.00;99.90
47516;DHT22;33249;51.990;5.840;2022-09-30T17:33:44;13.00;99.90
47516;DHT22;33249;51.990;5.840;2022-09-30T17:36:11;12.90;99.90
47516;DHT22;33249;51.990;5.840;2022-09-30T17:38:37;12.70;99.90
47516;DHT22;33249;51.990;5.840;2022-09-30T17:41:04;12.80;99.90
47516;DHT22;33249;51.990;5.840;2022-09-30T17:43:48;12.80;99.90
47516;DHT22;33249;51.990;5.840;2022-09-30T17:46:17;12.80;99.90
47516;DHT22;33249;51.990;5.840;2022-09-30T17:48:43;12.70;99.90
47516;DHT22;33249;51.990;5.840;2022-09-30T17:51:11;12.70;99.90
47516;DHT22;33249;51.990;5.840;2022-09-30T17:53:41;12.60;99.90
47516;DHT22;33249;51.990;5.840;2022-09-30T17:56:13;12.60;99.90
47516;DHT22;33249;51.990;5.840;2022-09-30T17:58:42;12.50;99.90
47516;DHT22;33249;51.990;5.840;2022-09-30T18:01:12;12.50;99.90
47516;DHT22;33249;51.990;5.840;2022-09-30T18:03:39;12.40;99.90
47516;DHT22;33249;51.990;5.840;2022-09-30T18:06:05;12.40;99.90
47516;DHT22;33249;51.990;5.840;2022-09-30T18:08:31;12.40;99.90
47516;DHT22;33249;51.990;5.840;2022-09-30T18:10:58;12.30;99.90
47516;DHT22;33249;51.990;5.840;2022-09-30T18:13:25;12.20;99.90
47516;DHT22;33249;51.990;5.840;2022-09-30T18:15:51;12.20;99.90
47516;DHT22;33249;51.990;5.840;2022-09-30T18:18:17;12.20;99.90
47516;DHT22;33249;51.990;5.840;2022-09-30T18:20:43;12.20;99.90
47516;DHT22;33249;51.990;5.840;2022-09-30T18:23:12;12.10;99.90
47516;DHT22;33249;51.990;5.840;2022-09-30T18:25:39;12.10;99.90
47516;DHT22;33249;51.990;5.840;2022-09-30T18:28:08;12.00;99.90
47516;DHT22;33249;51.990;5.840;2022-09-30T18:30:35;12.10;99.90
47516;DHT22;33249;51.990;5.840;2022-09-30T18:33:01;12.20;99.90
47516;DHT22;33249;51.990;5.840;2022-09-30T18:35:28;12.10;99.90
47516;DHT22;33249;51.990;5.840;2022-09-30T18:37:58;12.10;99.90
47516;DHT22;33249;51.990;5.840;2022-09-30T18:40:24;12.00;99.90
47516;DHT22;33249;51.990;5.840;2022-09-30T18:42:58;12.10;99.90
47516;DHT22;33249;51.990;5.840;2022-09-30T18:45:24;12.00;99.90
47516;DHT22;33249;51.990;5.840;2022-09-30T18:47:52;12.00;99.90